Merced, CA

5:21 AM PDT en Junio 28, 2017 (GMT -0700)
Merced Municipal-Macready | | Change Station
Aviso en curso: Areal Flood Warning

Alt 154 ft 37.28 °N, 120.51 °W | Updated 28 minutes ago

Despejado
Despejado
60 ° F
Sensación térmica 60 ° F
N
5
Viento Variable Viento desde NO

Hoy
Alta -- | Baja -- ° F
--% Posibilidad de precipitaciones
Ayer
Alta -- | Baja -- ° F
Precip. -- pul
Presión 29.84 pul
Visibilidad 10.0 Millas
Nubes Despejado
Punto de rocío 50 ° F
Humedad 69%
Precipitaciones 0.00 pul
Espesor de la nieve No disponible.
5:44 AM 8:26 PM
Creciente, 25% visible
METAR KMCE 281153Z AUTO 31004KT 10SM CLR 16/10 A2984 RMK AO2 SLP103 T01560100 10217 20156 53002 $
Presión 29.84 pul
Visibilidad 10.0 Millas
Nubes Despejado
Punto de rocío 50 ° F
Humedad 69%
Precipitaciones 0.00 pul
Espesor de la nieve No disponible.
5:44 AM 8:26 PM
Creciente, 25% visible
METAR KMCE 281153Z AUTO 31004KT 10SM CLR 16/10 A2984 RMK AO2 SLP103 T01560100 10217 20156 53002 $

Get Your Daily Forecast Email!

Thanks for signing up!

Be on the lookout for a verification email in your inbox.

You'll start receiving severe weather alerts in your inbox..

×

10-Day Weather Forecast

Almanac

Astronomía

Jun. 28, 2017 Salida Puesta
Hora real
Crepúsculo civil
Crepúsculo náutico
Crepúsculo astronómico
Luna
Horas de luz
Horas de luz
Tomorrow will be .
, % of the Moon is Illuminated

Extremos de hoy

Máximos del estado Bajos del estado

Community

WunderPhotos

Category 6

Welcome to Category 6. This is the collective home for Weather Underground's featured writeups by Dr. Jeff Masters (right), Bob Henson (left), Chris Burt, and other regular contributors.

Nearby

Calidad del aire

  Calidad del aire Índice AQ Contaminante
Not available.

Grosos de nieve

Estación Profundido Altura

Actividad de terremotos

Ciudad Distance Mag. Tiempo y dato
Magnitud mínima muestra es 2,5.

Temperaturas de aguas costeras

Lugar Temperatura

Stations

Estaciones meteorológicas cercanas

Ubicación de la estación Temp. Vientos helados Punto de rocío Humedad Viento Precip. Alt Actualizado Tipo
                   

Watches & Warnings

Areal Flood Warning
Issued: 1:25 PM PDT Jun. 27, 2017 – National Weather Service

... A Flood Warning for snowmelt remains in effect until 200 PM PDT
Thursday for northeastern Kings... northwestern Tulare and central
Fresno counties...

At 1130 am PDT, sections of the Kings River remained in flood.
Although water levels continue to slowly fall, water levels will
remain bankfull and continue flooding parts of the Kings River
through Wednesday.

Therefore, flood waters are moving down the Kings River to north of
Hanford and Lemoore. This remains a dangerous situation with the
cold, fast moving water.

Precautionary/preparedness actions...

A Flood Warning means that flooding is imminent or occurring. All
interested parties should take necessary precautions immediately.


Lat... Lon 3685 11935 3682 11932 3657 11945 3635 11960
      3634 11969 3667 11957

Mv